Aviation Digital Data Service (ADDS)

Output produced by METARs form (1059 UTC 19 April 2015)
found at http://aviationweather.gov/adds/metars/
 
KAEX 191053Z 18003KT 10SM CLR 16/16 A2974 RMK AO2 SLP074 T01610156 $